Vernon, New York
Current Conditions -  °F | °C
As of 5:53 PM on Wednesday 17 Dec 2014 (Local Time) from KRME Reporting Station
Unknown Precip Unknown Precip  
Wind Chill: 25°   Ceiling: 700
Heat Index: 33°   Visibility: 10mi
Dew Point: 33°   Wind: 9mph
Humidity: 100%   Direction: 260°W
Pressure: 29.9"   Gusts: NA
Location:  43.08°N, 75.54°W
Report Text: KRME 172253Z 26008KT 10SM UP OVC007 01/01 A2990 RMK AO2 RAE20UPB20SNB21E32 SLP126 P0001 T00060006
Loading
Personal Weather Stations






























Interactive Weather Map New forecast layout! Learn more

10-Day Weather Forecast

Advertisements
Track Severe Weather on mobile